AirNav   Air Wisconsin Up To $57,000 Bonus
 
 413 users online  

KNYG Quantico Marine Corps Airfield / Turner Field
Quantico, Virginia, USA

GOING TO QUANTICO?


FAA INFORMATION EFFECTIVE 22 APRIL 2021

Location

FAA Identifier: NYG
Lat/Long: 38-30-13.0488N 077-18-18.1178W
38-30.217480N 077-18.301963W
38.5036247,-77.3050327
(estimated)
Elevation: 11 ft. / 3.4 m (surveyed)
Variation: 11W (2020)
From city: 1 mile S of QUANTICO, VA
Time zone: UTC -4 (UTC -5 during Standard Time)
Zip code: 22134

Airport Operations

Airport use: Private use. Permission required prior to landing
Activation date: 01/1944
Control tower: yes
ARTCC: WASHINGTON CENTER
FSS: LEESBURG FLIGHT SERVICE STATION
NOTAMs facility: DCA (NOTAM-D service available)
Attendance: MON-THU 1300-0200Z++, ALL FRI 1300-2200Z++, ALL/SAT/SUN/HOLS/CLSD
Segmented circle: no
Lights: AVBL ONLY DURING HRS OF OPERATION.
Beacon: white-white-green (lighted military airport)
Operates sunset to sunrise.

Airport Communications

ATIS: 263.15
QUANTICO GROUND: 121.75 340.2 [1300-0200Z++ MON-THU; 1300-2200Z++ FRI; OPR SAT, SUN, AND HOL BY NOTAM ONLY.]
QUANTICO TOWER: 118.6 360.2 [1300-0200Z++ MON-THU; 1300-2200Z++ FRI; OPR SAT, SUN, AND HOL BY NOTAM ONLY.]
POTOMAC APPROACH: 127.05 290.375 128.525 ;WHEN NYG TWR CLSD
POTOMAC DEPARTURE: 127.05 290.375 128.525 ;WHEN NYG TWR CLSD
BASE OPS: 355.3
EMERG: 121.5 243.0
HYPER STAR: 133.0
PMSV METRO: 355.3
TIKEE STAR: 120.45
TRSTN STAR: 126.75
WX AWOS-3 at RMN (9 nm SW): 126.325 (540-657-8283)
WX AWOS-3 at EZF (16 nm SW): 128.125 (540-372-6794)
WX AWOS-3PT at HEF (16 nm NW): PHONE 703-361-6160
WX AWOS-3 at HWY (20 nm W): 120.350 (540-788-4078)
  • 1300-0200Z++ MON-THU; 1300-2200Z++ FRI; OPR SAT, SUN, AND HOL BY NOTAM ONLY.

Nearby radio navigation aids

VOR radial/distance  VOR name  Freq  Var
BRVr022/10.3BROOKE VORTAC114.5009W
DCAr220/24.8WASHINGTON VOR/DME111.0009W
AMLr172/26.9ARMEL VOR/DME113.5008W
ADWr238/27.5ANDREWS VORTAC113.1010W
CSNr113/27.6CASANOVA VORTAC116.3006W
OTTr255/28.9NOTTINGHAM VORTAC113.7010W

 
NDB name  Hdg/Dist  Freq  Var  ID
DAVEE233/13.222309WDAA -.. .- .-
SHANNON036/15.823710WEZF . --.. ..-.
OXONN231/20.433211WDCA -.. -.-. .-
GEORGETOWN207/26.932309WGTN --. - -.
NAILR094/28.335110WMSQ -- ... --.-

Airport Services

Fuel available: A1+ JET-B+
Bottled oxygen: NONE
Bulk oxygen: HIGH

Runway Information

Runway 2/20

Dimensions: 4250 x 200 ft. / 1295 x 61 m
Surface: PEM
RY 02 GRVD FIRST 1300 FT; RWY 20 GRVD FIRST1550 FT.
Weight bearing capacity: 
PCN 69 /R/B/W/T
Runway edge lights: high intensity
RUNWAY 2  RUNWAY 20
Latitude: 38-29.878665N38-30.556297N
Longitude: 077-18.414253W077-18.189673W
Elevation: 9.6 ft.10.5 ft.
Traffic pattern: leftleft
Runway heading: 026 magnetic, 015 true206 magnetic, 195 true
Markings: precision, in fair conditionprecision, in fair condition
Visual slope indicator: 4-light PAPI on left (3.00 degrees glide path)
Runway end identifier lights: yesyes
Touchdown point: yes, no lightsyes, no lights

Airport Ownership and Management from official FAA records

Ownership: U.S. Navy
Owner: US NAVY
OCEANOGRAPHIC OFC-CODE 3142
WASHINGTON, DC 20373
Manager: COMMANDING OFFICER
MARINE CORPS AIR STATION
QUANTICO, VA 22134
Phone 703-784-2084
ARPT MANAGER 703-784-1449.

Additional Remarks

FUEL: A++; LTD SUP. EXP NO MORE THAN 10K OVER PPR.
TRAN ALERT: NO TRAN MAINT AVBL. REQUIRE QUALIFIED CREW MEMBER TO ASSIST IN COLD REFUELING.
BIRD HAZ VCNTY RY 02-20 SR-SS. HVY MIGRATORY BIRD ACT OCT-MAR, HVY OSPREY ACT MAR-JUL, HVY EAGLE ACT DEC-JUL.
NS ABTMT: THE AREA IN AND ARND THE QUANTICO CLASS D AIRSPACE IS NOISE SENSITIVE. COPTER TRANSIT QUANTICO CLASS D AIRSPACE AT OR ABV 1000 FT AGL.
MISC:CAT II CRASH/FIRE RESCUE SVC.
REMARKS: MCAF QUANTICO HAS NOT PROVISIONS FOR SPACE A PASSENGERS. SPACE A PASSENGER CAN NOT BE ON-LOADED OR OFF-LOADED DUE TO SECURITY ISSUES.
MISC: MCAF QUANTICO AND R-6608 LIE WITH THE WASHINGTON ADIZ. PILOTS MUST ADHERE TO ADIZ RPRTG PROCS IN BOTH THESE AREAS. TWY A LTD TO R/W DALGT VFR ONLY.
CUSTOMS/AGRICULTURE/IMMIGRATION: CSTMS/AG/IMG - AVAILABLE WITH 72 HR PN BY PPR ONLY.
RSTD: ALL TRAN ACFT 24 HR PPR; BASE OPS DSN 278-2085/1459, OR C703-784-2085/1459. AFTER 2200Z++ AND ON WEEKEND CALL DSN 378-0920, C703-432-0920 OR C703-675-3623 FOR PPR. MIL AIRCRAFT AND LIGHT CIVIL AIRCRAFT OPR AT OTHER THAN PUBL HR SR-SS ONLY.
CAUTION: NO MANDATORY RWY VFR HOLD POSITION SIGNS CO-LOCATED W/MARKINGS ON TWYS A, B, AND D. RWY 02 OVRN 100 FT. RWY 20 NO OVRN.
FOR CD WHEN NYG ATCT/APCH ARE CLSD CTC POTOMAC APCH AT 866-709-4993.
RWY: NO 180 DEG TURNS ON RWY ASP.
MISC: 180 DEG TURNS ONLY ON CONC EOR.
MISC: NO STAGGERED ACFT DEVS FR RCL.
CAUTION: TWY D SFC CONSISTS OF AM-2 ALUMINUM MATTING WITH NON-SKID ALL WX COATING; NO EDGE LGTNG ON TWY D. LTD LGTNG ON N EDGE OF TWY B BTN RWY AND INT OF PARL TWY. TWY C CLSD.

Instrument Procedures

NOTE: All procedures below are presented as PDF files. If you need a reader for these files, you should download the free Adobe Reader.

NOT FOR NAVIGATION. Please procure official charts for flight.
FAA instrument procedures published for use from 22 April 2021 at 0901Z to 20 May 2021 at 0900z.

 
STARs - Standard Terminal Arrivals
HYPER EIGHT (RNAV)   2 pages: [1] [2] (424KB)
HYPER EIGHT (RNAV), CONT.2 **CHANGED**   download (302KB)
PRIVO TWO **CHANGED**   2 pages: [1] [2] (330KB)
TIKEE THREE (RNAV) **CHANGED**   download (240KB)
 
IAPs - Instrument Approach Procedures
RNAV (GPS) RWY 02   download (101KB)
TACAN RWY 02   download (141KB)
Radar Approach Procedures available   download (181KB)
NOTE: Special Take-Off Minimums/Departure Procedures apply   download (351KB)

Other nearby airports with instrument procedures:

KRMN - Stafford Regional Airport (9 nm SW)
2W5 - Maryland Airport (12 nm NE)
KDAA - Davison Army Airfield (14 nm NE)
KEZF - Shannon Airport (16 nm SW)
KHEF - Manassas Regional Airport/Harry P. Davis Field (16 nm NW)
KHWY - Warrenton-Fauquier Airport (20 nm W)
 
Loc | Ops | Rwys | IFR | FBO | Links
Com | Nav | Svcs | Stats | Notes
Area around KNYG (Quantico Marine Corps Airfield / Turner Field)
 
Road maps at: MapQuest Bing Google
 
Aerial photo
WARNING: Photo may not be current or correct
Aerial photo of KNYG (Quantico Marine Corps Airfield / Turner Field)
Jeff Long, SkyFocal.com
Photo taken 06-Jan-2012
looking north.

Do you have a better or more recent aerial photo of Quantico Marine Corps Airfield / Turner Field that you would like to share? If so, please send us your photo.

 
Sectional chart

 
Airport distance calculator
Flying to Quantico Marine Corps Airfield / Turner Field? Find the distance to fly.

From to KNYG

Sunrise and sunset
Times for 15-May-2021
 Local
(UTC-4)
 Zulu
(UTC)
Morning civil twilight05:2909:29
Sunrise05:5909:59
Sunset20:1300:13
Evening civil twilight20:4200:42

Current date and time
Zulu (UTC)  15-May-2021 09:23:46
Local (UTC-4)  15-May-2021 05:23:46
 
METAR
KNYG 150856Z AUTO 28004KT 7SM CLR 09/06 A3024 RMK AO2 SLP240 T00890061 55002
KRMN 
9nm SW 
150855Z AUTO 00000KT 10SM CLR 05/05 A3027 RMK AO2 T00540045
KDAA 
14nm NE 
150856Z AUTO 00000KT 10SM CLR 05/05 A3022 RMK AO2 SLP236 T00540045 55001 $
KEZF 
16nm SW 
150855Z AUTO 00000KT 10SM CLR 07/05 A3023 RMK AO2 T00660050
KHEF 
16nm NW 
150856Z AUTO 00000KT 10SM CLR 04/04 A3024 RMK AO2 SLP246 T00440039 55000
KHWY 
20nm W 
150855Z AUTO 00000KT 10SM CLR 04/03 A3023 RMK AO2 T00390025
TAF
KNYG 1421/1521 VRB06KT 9999 SKC QNH3021INS BECMG 1518/1520 VRB06KT 9999 SCT100 QNH3022INS T07/1510Z T23/1519Z LAST NO AMDS AFT 1421/ NEXT 1515
KDAA 
14nm NE 
142000Z 1420/1602 15005KT 9999 VCSH BKN070 QNH3022INS BECMG 1500/1501 VRB05KT 9999 NSW FEW100 QNH3025INS BECMG 1514/1515 30009KT 9999 FEW060 SCT250 QNH3017INS TX23/1520Z TN07/1509Z LAST NO AMDS AFT 1501 NEXT 1712
NOTAMs
Click for the latest NOTAMs
NOTAMs are issued by the DoD/FAA and will open in a separate window not controlled by AirNav.

 

 
 

Would you like to see your business listed on this page?

 If your business provides an interesting product or service to pilots, flight crews, aircraft, or users of the Quantico Marine Corps Airfield / Turner Field, you should consider listing it here.  To start the listing process, click on the button below
 
Add a business
 

Other Pages about Quantico Marine Corps Airfield / Turner Field

Update a link
 
Copyright © AirNav, LLC. All rights reserved. Privacy Policy  Contact